sensor_id;sensor_type;location;lat;lon;timestamp;temperature;humidity
9668;DHT22;4872;48.316;10.650;2023-10-31T04:52:29;10.10;99.90
9668;DHT22;4872;48.316;10.650;2023-10-31T04:54:56;10.00;99.90
9668;DHT22;4872;48.316;10.650;2023-10-31T04:57:23;10.00;99.90
9668;DHT22;4872;48.316;10.650;2023-10-31T04:59:50;10.00;99.90
9668;DHT22;4872;48.316;10.650;2023-10-31T05:02:21;10.00;99.90
9668;DHT22;4872;48.316;10.650;2023-10-31T05:04:48;10.00;99.90
9668;DHT22;4872;48.316;10.650;2023-10-31T05:07:16;10.00;99.90
9668;DHT22;4872;48.316;10.650;2023-10-31T05:09:44;10.00;99.90
9668;DHT22;4872;48.316;10.650;2023-10-31T05:12:11;10.00;99.90
9668;DHT22;4872;48.316;10.650;2023-10-31T05:14:39;10.90;99.90
9668;DHT22;4872;48.316;10.650;2023-10-31T05:17:06;10.00;99.90
9668;DHT22;4872;48.316;10.650;2023-10-31T05:19:33;9.90;99.90
9668;DHT22;4872;48.316;10.650;2023-10-31T05:21:59;10.00;99.90
9668;DHT22;4872;48.316;10.650;2023-10-31T05:24:26;9.90;99.90
9668;DHT22;4872;48.316;10.650;2023-10-31T05:26:54;10.00;99.90
9668;DHT22;4872;48.316;10.650;2023-10-31T05:29:22;10.00;99.90
9668;DHT22;4872;48.316;10.650;2023-10-31T05:31:48;10.00;99.90
9668;DHT22;4872;48.316;10.650;2023-10-31T05:34:15;9.90;99.90
9668;DHT22;4872;48.316;10.650;2023-10-31T05:36:42;9.90;99.90
9668;DHT22;4872;48.316;10.650;2023-10-31T05:39:09;9.90;99.90
9668;DHT22;4872;48.316;10.650;2023-10-31T05:41:36;9.90;99.90
9668;DHT22;4872;48.316;10.650;2023-10-31T05:44:04;9.90;99.90
9668;DHT22;4872;48.316;10.650;2023-10-31T05:46:31;9.90;99.90
9668;DHT22;4872;48.316;10.650;2023-10-31T05:48:58;9.80;99.90
9668;DHT22;4872;48.316;10.650;2023-10-31T05:51:24;9.90;99.90
9668;DHT22;4872;48.316;10.650;2023-10-31T05:53:51;9.90;99.90
9668;DHT22;4872;48.316;10.650;2023-10-31T05:56:18;9.90;99.90
9668;DHT22;4872;48.316;10.650;2023-10-31T05:58:45;9.90;99.90
9668;DHT22;4872;48.316;10.650;2023-10-31T06:01:13;9.80;99.90
9668;DHT22;4872;48.316;10.650;2023-10-31T06:03:41;9.90;99.90
9668;DHT22;4872;48.316;10.650;2023-10-31T06:06:10;9.90;99.90
9668;DHT22;4872;48.316;10.650;2023-10-31T06:08:37;9.80;99.90
9668;DHT22;4872;48.316;10.650;2023-10-31T06:11:04;9.80;99.90
9668;DHT22;4872;48.316;10.650;2023-10-31T06:13:31;9.90;99.90
9668;DHT22;4872;48.316;10.650;2023-10-31T06:15:59;9.80;99.90
9668;DHT22;4872;48.316;10.650;2023-10-31T06:18:27;9.80;99.90
9668;DHT22;4872;48.316;10.650;2023-10-31T06:20:54;9.80;99.90
9668;DHT22;4872;48.316;10.650;2023-10-31T06:23:21;9.80;99.90
9668;DHT22;4872;48.316;10.650;2023-10-31T06:25:48;9.80;99.90
9668;DHT22;4872;48.316;10.650;2023-10-31T06:28:15;9.80;99.90
9668;DHT22;4872;48.316;10.650;2023-10-31T06:30:42;9.80;99.90
9668;DHT22;4872;48.316;10.650;2023-10-31T06:33:08;9.80;99.90
9668;DHT22;4872;48.316;10.650;2023-10-31T06:35:37;9.80;99.90
9668;DHT22;4872;48.316;10.650;2023-10-31T06:38:04;9.80;99.90
9668;DHT22;4872;48.316;10.650;2023-10-31T06:40:30;9.90;99.90
9668;DHT22;4872;48.316;10.650;2023-10-31T06:42:58;9.80;99.90
9668;DHT22;4872;48.316;10.650;2023-10-31T06:45:24;9.80;99.90
9668;DHT22;4872;48.316;10.650;2023-10-31T06:47:51;9.80;99.90
9668;DHT22;4872;48.316;10.650;2023-10-31T06:50:18;9.80;99.90
9668;DHT22;4872;48.316;10.650;2023-10-31T06:52:46;9.80;99.90
9668;DHT22;4872;48.316;10.650;2023-10-31T06:55:14;9.80;99.90
9668;DHT22;4872;48.316;10.650;2023-10-31T06:57:41;9.80;99.90
9668;DHT22;4872;48.316;10.650;2023-10-31T07:00:10;9.70;99.90
9668;DHT22;4872;48.316;10.650;2023-10-31T07:02:40;9.80;99.90
9668;DHT22;4872;48.316;10.650;2023-10-31T07:05:07;9.80;99.90
9668;DHT22;4872;48.316;10.650;2023-10-31T07:07:34;9.70;99.90
9668;DHT22;4872;48.316;10.650;2023-10-31T07:10:02;9.80;99.90
9668;DHT22;4872;48.316;10.650;2023-10-31T07:12:29;9.80;99.90
9668;DHT22;4872;48.316;10.650;2023-10-31T07:14:56;9.80;99.90
9668;DHT22;4872;48.316;10.650;2023-10-31T07:17:24;9.80;99.90
9668;DHT22;4872;48.316;10.650;2023-10-31T07:19:50;9.80;99.90
9668;DHT22;4872;48.316;10.650;2023-10-31T07:22:18;9.90;99.90
9668;DHT22;4872;48.316;10.650;2023-10-31T07:24:45;9.90;99.90
9668;DHT22;4872;48.316;10.650;2023-10-31T07:27:13;9.80;99.90
9668;DHT22;4872;48.316;10.650;2023-10-31T07:29:39;9.80;99.90
9668;DHT22;4872;48.316;10.650;2023-10-31T07:32:07;9.80;99.90
9668;DHT22;4872;48.316;10.650;2023-10-31T07:34:33;9.80;99.90
9668;DHT22;4872;48.316;10.650;2023-10-31T07:37:00;9.80;99.90
9668;DHT22;4872;48.316;10.650;2023-10-31T07:39:27;9.80;99.90
9668;DHT22;4872;48.316;10.650;2023-10-31T07:41:54;9.90;99.90
9668;DHT22;4872;48.316;10.650;2023-10-31T07:44:22;9.90;99.90
9668;DHT22;4872;48.316;10.650;2023-10-31T07:46:48;9.80;99.90
9668;DHT22;4872;48.316;10.650;2023-10-31T07:49:15;9.80;99.90
9668;DHT22;4872;48.316;10.650;2023-10-31T07:51:42;9.80;99.90
9668;DHT22;4872;48.316;10.650;2023-10-31T07:54:09;9.80;99.90
9668;DHT22;4872;48.316;10.650;2023-10-31T07:56:35;10.10;99.90
9668;DHT22;4872;48.316;10.650;2023-10-31T07:59:03;9.80;99.90
9668;DHT22;4872;48.316;10.650;2023-10-31T08:01:31;9.90;99.90
9668;DHT22;4872;48.316;10.650;2023-10-31T08:03:58;9.90;99.90
9668;DHT22;4872;48.316;10.650;2023-10-31T08:06:25;9.90;99.90
9668;DHT22;4872;48.316;10.650;2023-10-31T08:08:51;10.00;99.90
9668;DHT22;4872;48.316;10.650;2023-10-31T08:11:18;10.00;99.90
9668;DHT22;4872;48.316;10.650;2023-10-31T08:13:45;10.10;99.90
9668;DHT22;4872;48.316;10.650;2023-10-31T08:16:17;10.30;99.90
9668;DHT22;4872;48.316;10.650;2023-10-31T08:18:46;10.70;99.90
9668;DHT22;4872;48.316;10.650;2023-10-31T08:21:13;10.10;99.90
9668;DHT22;4872;48.316;10.650;2023-10-31T08:23:40;10.20;99.90
9668;DHT22;4872;48.316;10.650;2023-10-31T08:26:10;9.40;99.90
9668;DHT22;4872;48.316;10.650;2023-10-31T08:28:38;10.10;99.90
9668;DHT22;4872;48.316;10.650;2023-10-31T08:31:05;10.10;99.90
9668;DHT22;4872;48.316;10.650;2023-10-31T08:33:31;10.10;99.90
9668;DHT22;4872;48.316;10.650;2023-10-31T08:36:00;10.40;99.90
9668;DHT22;4872;48.316;10.650;2023-10-31T08:38:27;10.10;99.90
9668;DHT22;4872;48.316;10.650;2023-10-31T08:40:55;10.10;99.90
9668;DHT22;4872;48.316;10.650;2023-10-31T08:43:22;10.10;99.90
9668;DHT22;4872;48.316;10.650;2023-10-31T08:45:49;10.10;99.90
9668;DHT22;4872;48.316;10.650;2023-10-31T08:48:17;10.20;99.90
9668;DHT22;4872;48.316;10.650;2023-10-31T08:50:44;10.30;99.90
9668;DHT22;4872;48.316;10.650;2023-10-31T08:53:13;11.00;99.90
9668;DHT22;4872;48.316;10.650;2023-10-31T08:55:40;11.20;99.90
9668;DHT22;4872;48.316;10.650;2023-10-31T08:58:09;10.90;99.90
9668;DHT22;4872;48.316;10.650;2023-10-31T09:00:36;10.80;99.90
9668;DHT22;4872;48.316;10.650;2023-10-31T09:03:03;10.30;99.90
9668;DHT22;4872;48.316;10.650;2023-10-31T09:05:29;10.30;99.90
9668;DHT22;4872;48.316;10.650;2023-10-31T09:07:56;10.40;99.90
9668;DHT22;4872;48.316;10.650;2023-10-31T09:10:24;10.40;99.90
9668;DHT22;4872;48.316;10.650;2023-10-31T09:12:51;10.40;99.90
9668;DHT22;4872;48.316;10.650;2023-10-31T09:15:18;10.30;99.90
9668;DHT22;4872;48.316;10.650;2023-10-31T09:17:46;10.40;99.90
9668;DHT22;4872;48.316;10.650;2023-10-31T09:20:13;10.50;99.90
9668;DHT22;4872;48.316;10.650;2023-10-31T09:22:40;10.50;99.90
9668;DHT22;4872;48.316;10.650;2023-10-31T09:25:07;10.50;99.90
9668;DHT22;4872;48.316;10.650;2023-10-31T09:27:39;10.60;99.90
9668;DHT22;4872;48.316;10.650;2023-10-31T09:30:07;10.60;99.90
9668;DHT22;4872;48.316;10.650;2023-10-31T09:32:34;10.60;99.90
9668;DHT22;4872;48.316;10.650;2023-10-31T09:35:01;10.60;99.90
9668;DHT22;4872;48.316;10.650;2023-10-31T09:37:28;10.60;99.90
9668;DHT22;4872;48.316;10.650;2023-10-31T09:39:55;10.60;99.90
9668;DHT22;4872;48.316;10.650;2023-10-31T09:42:21;11.30;99.90
9668;DHT22;4872;48.316;10.650;2023-10-31T09:44:49;11.70;99.90
9668;DHT22;4872;48.316;10.650;2023-10-31T09:47:16;10.90;99.90
9668;DHT22;4872;48.316;10.650;2023-10-31T09:49:44;10.90;99.90
9668;DHT22;4872;48.316;10.650;2023-10-31T09:52:11;11.00;99.90
9668;DHT22;4872;48.316;10.650;2023-10-31T09:54:38;11.20;99.90
9668;DHT22;4872;48.316;10.650;2023-10-31T09:57:06;11.30;99.90
9668;DHT22;4872;48.316;10.650;2023-10-31T09:59:32;11.30;99.90
9668;DHT22;4872;48.316;10.650;2023-10-31T10:02:00;11.30;99.90
9668;DHT22;4872;48.316;10.650;2023-10-31T10:04:28;11.30;99.80
9668;DHT22;4872;48.316;10.650;2023-10-31T10:06:58;11.30;99.80
9668;DHT22;4872;48.316;10.650;2023-10-31T10:09:26;11.30;99.90
9668;DHT22;4872;48.316;10.650;2023-10-31T10:11:53;11.30;99.90
9668;DHT22;4872;48.316;10.650;2023-10-31T10:14:23;11.30;99.50
9668;DHT22;4872;48.316;10.650;2023-10-31T10:16:50;11.50;99.60
9668;DHT22;4872;48.316;10.650;2023-10-31T10:19:21;11.30;99.40
9668;DHT22;4872;48.316;10.650;2023-10-31T10:21:49;11.40;99.70
9668;DHT22;4872;48.316;10.650;2023-10-31T10:24:17;11.60;99.70
9668;DHT22;4872;48.316;10.650;2023-10-31T10:26:44;11.60;99.70
9668;DHT22;4872;48.316;10.650;2023-10-31T10:29:11;11.70;99.00
9668;DHT22;4872;48.316;10.650;2023-10-31T10:31:37;11.70;99.00
9668;DHT22;4872;48.316;10.650;2023-10-31T10:34:05;11.60;99.10
9668;DHT22;4872;48.316;10.650;2023-10-31T10:36:34;11.90;99.00
9668;DHT22;4872;48.316;10.650;2023-10-31T10:39:01;11.90;99.00
9668;DHT22;4872;48.316;10.650;2023-10-31T10:41:29;11.90;98.60
9668;DHT22;4872;48.316;10.650;2023-10-31T10:43:57;12.00;98.60
9668;DHT22;4872;48.316;10.650;2023-10-31T10:46:32;12.00;98.70
9668;DHT22;4872;48.316;10.650;2023-10-31T10:49:03;12.10;98.30
9668;DHT22;4872;48.316;10.650;2023-10-31T10:51:40;12.10;98.60
9668;DHT22;4872;48.316;10.650;2023-10-31T10:54:15;12.20;98.20
9668;DHT22;4872;48.316;10.650;2023-10-31T10:56:46;12.20;97.70
9668;DHT22;4872;48.316;10.650;2023-10-31T10:59:15;12.20;98.00
9668;DHT22;4872;48.316;10.650;2023-10-31T11:01:46;12.50;97.70
9668;DHT22;4872;48.316;10.650;2023-10-31T11:04:14;12.40;97.80
9668;DHT22;4872;48.316;10.650;2023-10-31T11:06:44;12.40;97.80
9668;DHT22;4872;48.316;10.650;2023-10-31T11:09:11;13.10;97.80
9668;DHT22;4872;48.316;10.650;2023-10-31T11:11:40;12.50;97.40
9668;DHT22;4872;48.316;10.650;2023-10-31T11:14:14;12.60;97.20
9668;DHT22;4872;48.316;10.650;2023-10-31T11:16:45;12.60;96.90
9668;DHT22;4872;48.316;10.650;2023-10-31T11:19:15;12.60;97.00
9668;DHT22;4872;48.316;10.650;2023-10-31T11:21:54;12.60;97.00
9668;DHT22;4872;48.316;10.650;2023-10-31T11:24:21;12.50;96.90
9668;DHT22;4872;48.316;10.650;2023-10-31T11:26:53;12.50;97.10
9668;DHT22;4872;48.316;10.650;2023-10-31T11:29:20;12.60;97.20
9668;DHT22;4872;48.316;10.650;2023-10-31T11:31:47;12.50;97.20
9668;DHT22;4872;48.316;10.650;2023-10-31T11:34:16;12.50;97.30
9668;DHT22;4872;48.316;10.650;2023-10-31T11:36:44;12.60;97.40
9668;DHT22;4872;48.316;10.650;2023-10-31T11:39:14;12.50;97.20
9668;DHT22;4872;48.316;10.650;2023-10-31T11:41:45;12.40;97.20
9668;DHT22;4872;48.316;10.650;2023-10-31T11:44:15;12.30;97.30
9668;DHT22;4872;48.316;10.650;2023-10-31T11:46:41;12.20;97.60
9668;DHT22;4872;48.316;10.650;2023-10-31T11:49:08;12.10;97.70
9668;DHT22;4872;48.316;10.650;2023-10-31T11:51:35;12.00;97.80
9668;DHT22;4872;48.316;10.650;2023-10-31T11:54:02;11.90;98.00
9668;DHT22;4872;48.316;10.650;2023-10-31T11:56:34;12.00;98.20
9668;DHT22;4872;48.316;10.650;2023-10-31T11:59:02;12.00;98.20
9668;DHT22;4872;48.316;10.650;2023-10-31T12:01:29;12.00;98.30
9668;DHT22;4872;48.316;10.650;2023-10-31T12:03:56;12.00;98.50
9668;DHT22;4872;48.316;10.650;2023-10-31T12:06:23;11.90;98.30
9668;DHT22;4872;48.316;10.650;2023-10-31T12:08:50;12.00;98.60
9668;DHT22;4872;48.316;10.650;2023-10-31T12:11:17;12.00;98.60
9668;DHT22;4872;48.316;10.650;2023-10-31T12:13:55;12.00;99.00
9668;DHT22;4872;48.316;10.650;2023-10-31T12:16:26;11.90;98.80
9668;DHT22;4872;48.316;10.650;2023-10-31T12:18:57;11.90;99.10
9668;DHT22;4872;48.316;10.650;2023-10-31T12:21:42;11.90;99.50
9668;DHT22;4872;48.316;10.650;2023-10-31T12:24:10;11.90;99.10
9668;DHT22;4872;48.316;10.650;2023-10-31T12:26:38;11.90;99.30
9668;DHT22;4872;48.316;10.650;2023-10-31T12:29:13;12.00;99.40
9668;DHT22;4872;48.316;10.650;2023-10-31T12:31:43;12.10;99.60
9668;DHT22;4872;48.316;10.650;2023-10-31T12:34:11;11.90;99.60
9668;DHT22;4872;48.316;10.650;2023-10-31T12:36:38;11.90;99.70
9668;DHT22;4872;48.316;10.650;2023-10-31T12:39:07;11.80;99.60
9668;DHT22;4872;48.316;10.650;2023-10-31T12:41:35;11.90;99.70
9668;DHT22;4872;48.316;10.650;2023-10-31T12:44:02;11.80;99.60
9668;DHT22;4872;48.316;10.650;2023-10-31T12:46:32;11.80;99.90
9668;DHT22;4872;48.316;10.650;2023-10-31T12:49:00;11.90;99.80
9668;DHT22;4872;48.316;10.650;2023-10-31T12:51:27;12.00;99.90
9668;DHT22;4872;48.316;10.650;2023-10-31T12:53:54;12.10;99.90
9668;DHT22;4872;48.316;10.650;2023-10-31T12:56:38;12.10;99.90
9668;DHT22;4872;48.316;10.650;2023-10-31T12:59:05;12.30;99.80
9668;DHT22;4872;48.316;10.650;2023-10-31T13:01:35;12.40;99.60
9668;DHT22;4872;48.316;10.650;2023-10-31T13:04:03;12.50;99.70
9668;DHT22;4872;48.316;10.650;2023-10-31T13:06:30;12.50;99.60
9668;DHT22;4872;48.316;10.650;2023-10-31T13:08:56;12.60;99.50
9668;DHT22;4872;48.316;10.650;2023-10-31T13:11:23;12.50;99.80
9668;DHT22;4872;48.316;10.650;2023-10-31T13:13:51;12.50;99.40
9668;DHT22;4872;48.316;10.650;2023-10-31T13:16:19;12.30;99.90
9668;DHT22;4872;48.316;10.650;2023-10-31T13:18:47;12.20;99.90
9668;DHT22;4872;48.316;10.650;2023-10-31T13:21:15;12.20;99.90
9668;DHT22;4872;48.316;10.650;2023-10-31T13:23:43;12.00;99.90
9668;DHT22;4872;48.316;10.650;2023-10-31T13:26:11;12.00;99.90
9668;DHT22;4872;48.316;10.650;2023-10-31T13:28:38;12.00;99.90
9668;DHT22;4872;48.316;10.650;2023-10-31T13:31:05;12.20;99.90
9668;DHT22;4872;48.316;10.650;2023-10-31T13:33:32;12.50;99.90
9668;DHT22;4872;48.316;10.650;2023-10-31T13:36:00;13.60;99.90
9668;DHT22;4872;48.316;10.650;2023-10-31T13:38:27;12.80;99.90
9668;DHT22;4872;48.316;10.650;2023-10-31T13:40:54;12.90;99.90
9668;DHT22;4872;48.316;10.650;2023-10-31T13:43:21;12.90;99.90
9668;DHT22;4872;48.316;10.650;2023-10-31T13:45:47;12.80;99.90
9668;DHT22;4872;48.316;10.650;2023-10-31T13:48:14;12.70;99.90
9668;DHT22;4872;48.316;10.650;2023-10-31T13:50:41;12.60;99.90
9668;DHT22;4872;48.316;10.650;2023-10-31T13:53:09;12.50;99.90
9668;DHT22;4872;48.316;10.650;2023-10-31T13:55:35;12.30;99.90
9668;DHT22;4872;48.316;10.650;2023-10-31T13:58:02;12.30;99.90
9668;DHT22;4872;48.316;10.650;2023-10-31T14:00:29;12.30;99.90
9668;DHT22;4872;48.316;10.650;2023-10-31T14:02:56;12.30;99.90
9668;DHT22;4872;48.316;10.650;2023-10-31T14:05:22;12.30;99.90
9668;DHT22;4872;48.316;10.650;2023-10-31T14:07:50;12.20;99.90
9668;DHT22;4872;48.316;10.650;2023-10-31T14:10:18;12.20;99.90
9668;DHT22;4872;48.316;10.650;2023-10-31T14:12:45;12.20;99.90
9668;DHT22;4872;48.316;10.650;2023-10-31T14:15:12;12.20;99.90
9668;DHT22;4872;48.316;10.650;2023-10-31T14:17:39;12.10;99.90
9668;DHT22;4872;48.316;10.650;2023-10-31T14:20:07;12.00;99.90
9668;DHT22;4872;48.316;10.650;2023-10-31T14:22:34;12.00;99.90
9668;DHT22;4872;48.316;10.650;2023-10-31T14:25:00;12.00;99.90
9668;DHT22;4872;48.316;10.650;2023-10-31T14:27:31;12.10;99.90
9668;DHT22;4872;48.316;10.650;2023-10-31T14:29:58;12.00;99.90
9668;DHT22;4872;48.316;10.650;2023-10-31T14:32:25;12.10;99.90
9668;DHT22;4872;48.316;10.650;2023-10-31T14:34:51;12.10;99.90
9668;DHT22;4872;48.316;10.650;2023-10-31T14:37:18;12.10;99.90
9668;DHT22;4872;48.316;10.650;2023-10-31T14:39:45;12.00;99.90
9668;DHT22;4872;48.316;10.650;2023-10-31T14:42:11;12.00;99.90
9668;DHT22;4872;48.316;10.650;2023-10-31T14:44:39;11.90;99.90
9668;DHT22;4872;48.316;10.650;2023-10-31T14:47:07;11.90;99.90
9668;DHT22;4872;48.316;10.650;2023-10-31T14:49:35;11.90;99.90
9668;DHT22;4872;48.316;10.650;2023-10-31T14:52:03;12.00;99.90
9668;DHT22;4872;48.316;10.650;2023-10-31T14:54:30;11.80;99.90
9668;DHT22;4872;48.316;10.650;2023-10-31T14:56:57;11.70;99.90
9668;DHT22;4872;48.316;10.650;2023-10-31T14:59:23;11.70;99.90
9668;DHT22;4872;48.316;10.650;2023-10-31T15:01:52;11.70;99.90
9668;DHT22;4872;48.316;10.650;2023-10-31T15:04:18;11.80;99.90
9668;DHT22;4872;48.316;10.650;2023-10-31T15:06:45;11.70;99.90
9668;DHT22;4872;48.316;10.650;2023-10-31T15:09:12;11.80;99.90
9668;DHT22;4872;48.316;10.650;2023-10-31T15:11:38;11.80;99.90
9668;DHT22;4872;48.316;10.650;2023-10-31T15:14:05;11.90;99.90
9668;DHT22;4872;48.316;10.650;2023-10-31T15:16:32;11.90;99.90
9668;DHT22;4872;48.316;10.650;2023-10-31T15:19:00;12.00;99.90
9668;DHT22;4872;48.316;10.650;2023-10-31T15:21:27;12.00;99.90
9668;DHT22;4872;48.316;10.650;2023-10-31T15:23:53;11.90;99.90
9668;DHT22;4872;48.316;10.650;2023-10-31T15:26:21;11.90;99.90
9668;DHT22;4872;48.316;10.650;2023-10-31T15:28:52;11.90;99.90
9668;DHT22;4872;48.316;10.650;2023-10-31T15:31:18;11.80;99.90
9668;DHT22;4872;48.316;10.650;2023-10-31T15:33:45;11.80;99.90
9668;DHT22;4872;48.316;10.650;2023-10-31T15:36:13;11.70;99.90
9668;DHT22;4872;48.316;10.650;2023-10-31T15:38:41;11.70;99.90
9668;DHT22;4872;48.316;10.650;2023-10-31T15:41:08;11.70;99.90
9668;DHT22;4872;48.316;10.650;2023-10-31T15:43:35;11.80;99.90
9668;DHT22;4872;48.316;10.650;2023-10-31T15:46:02;11.70;99.90
9668;DHT22;4872;48.316;10.650;2023-10-31T15:48:29;11.50;99.90
9668;DHT22;4872;48.316;10.650;2023-10-31T15:50:56;11.50;99.90
9668;DHT22;4872;48.316;10.650;2023-10-31T15:53:24;11.40;99.90
9668;DHT22;4872;48.316;10.650;2023-10-31T15:55:53;11.40;99.90
9668;DHT22;4872;48.316;10.650;2023-10-31T15:58:19;11.30;99.90
9668;DHT22;4872;48.316;10.650;2023-10-31T16:00:47;11.30;99.90
9668;DHT22;4872;48.316;10.650;2023-10-31T16:03:13;11.30;99.90
9668;DHT22;4872;48.316;10.650;2023-10-31T16:05:40;11.20;99.90
9668;DHT22;4872;48.316;10.650;2023-10-31T16:08:07;11.30;99.90
9668;DHT22;4872;48.316;10.650;2023-10-31T16:10:35;11.20;99.90
9668;DHT22;4872;48.316;10.650;2023-10-31T16:13:03;11.20;99.90
9668;DHT22;4872;48.316;10.650;2023-10-31T16:15:29;11.20;99.90
9668;DHT22;4872;48.316;10.650;2023-10-31T16:17:56;11.30;99.90
9668;DHT22;4872;48.316;10.650;2023-10-31T16:20:23;11.30;99.90
9668;DHT22;4872;48.316;10.650;2023-10-31T16:22:50;11.20;99.90
9668;DHT22;4872;48.316;10.650;2023-10-31T16:25:16;11.30;99.90
9668;DHT22;4872;48.316;10.650;2023-10-31T16:27:44;11.30;99.90
9668;DHT22;4872;48.316;10.650;2023-10-31T16:30:12;11.00;99.90
9668;DHT22;4872;48.316;10.650;2023-10-31T16:32:39;10.90;99.90
9668;DHT22;4872;48.316;10.650;2023-10-31T16:35:06;11.10;99.90
9668;DHT22;4872;48.316;10.650;2023-10-31T16:37:33;10.90;99.90
9668;DHT22;4872;48.316;10.650;2023-10-31T16:40:00;11.30;99.90
9668;DHT22;4872;48.316;10.650;2023-10-31T16:42:27;10.80;99.90
9668;DHT22;4872;48.316;10.650;2023-10-31T16:44:59;10.80;99.90
9668;DHT22;4872;48.316;10.650;2023-10-31T16:47:26;10.80;99.90
9668;DHT22;4872;48.316;10.650;2023-10-31T16:49:52;10.80;99.90
9668;DHT22;4872;48.316;10.650;2023-10-31T16:52:19;10.70;99.90
9668;DHT22;4872;48.316;10.650;2023-10-31T16:54:47;10.80;99.90
9668;DHT22;4872;48.316;10.650;2023-10-31T16:57:14;11.20;99.90
9668;DHT22;4872;48.316;10.650;2023-10-31T16:59:41;10.70;99.90
9668;DHT22;4872;48.316;10.650;2023-10-31T17:02:09;10.70;99.90
9668;DHT22;4872;48.316;10.650;2023-10-31T17:04:36;10.90;99.90
9668;DHT22;4872;48.316;10.650;2023-10-31T17:07:03;10.70;99.90
9668;DHT22;4872;48.316;10.650;2023-10-31T17:09:30;10.70;99.90
9668;DHT22;4872;48.316;10.650;2023-10-31T17:11:56;10.70;99.90
9668;DHT22;4872;48.316;10.650;2023-10-31T17:14:23;10.80;99.90
9668;DHT22;4872;48.316;10.650;2023-10-31T17:16:50;10.60;99.90
9668;DHT22;4872;48.316;10.650;2023-10-31T17:19:18;10.70;99.90
9668;DHT22;4872;48.316;10.650;2023-10-31T17:21:45;10.70;99.90
9668;DHT22;4872;48.316;10.650;2023-10-31T17:24:13;10.70;99.90
9668;DHT22;4872;48.316;10.650;2023-10-31T17:26:40;11.10;99.90
9668;DHT22;4872;48.316;10.650;2023-10-31T17:29:07;10.80;99.90
9668;DHT22;4872;48.316;10.650;2023-10-31T17:31:37;10.70;99.90
9668;DHT22;4872;48.316;10.650;2023-10-31T17:34:04;10.60;99.90
9668;DHT22;4872;48.316;10.650;2023-10-31T17:36:32;10.70;99.90
9668;DHT22;4872;48.316;10.650;2023-10-31T17:38:58;10.70;99.90
9668;DHT22;4872;48.316;10.650;2023-10-31T17:41:25;10.60;99.90
9668;DHT22;4872;48.316;10.650;2023-10-31T17:43:52;10.60;99.90
9668;DHT22;4872;48.316;10.650;2023-10-31T17:46:19;10.60;99.90
9668;DHT22;4872;48.316;10.650;2023-10-31T17:48:46;10.60;99.90
9668;DHT22;4872;48.316;10.650;2023-10-31T17:51:12;10.60;99.90
9668;DHT22;4872;48.316;10.650;2023-10-31T17:53:40;10.60;99.90
9668;DHT22;4872;48.316;10.650;2023-10-31T17:56:08;10.60;99.90
9668;DHT22;4872;48.316;10.650;2023-10-31T17:58:35;10.60;99.90
9668;DHT22;4872;48.316;10.650;2023-10-31T18:01:02;10.60;99.90
9668;DHT22;4872;48.316;10.650;2023-10-31T18:03:29;10.60;99.90
9668;DHT22;4872;48.316;10.650;2023-10-31T18:05:56;10.60;99.90
9668;DHT22;4872;48.316;10.650;2023-10-31T18:08:23;10.50;99.90
9668;DHT22;4872;48.316;10.650;2023-10-31T18:10:51;10.50;99.90
9668;DHT22;4872;48.316;10.650;2023-10-31T18:13:17;10.60;99.90
9668;DHT22;4872;48.316;10.650;2023-10-31T18:15:45;10.50;99.90
9668;DHT22;4872;48.316;10.650;2023-10-31T18:18:11;11.20;99.90
9668;DHT22;4872;48.316;10.650;2023-10-31T18:20:38;10.50;99.90
9668;DHT22;4872;48.316;10.650;2023-10-31T18:23:05;11.20;99.90
9668;DHT22;4872;48.316;10.650;2023-10-31T18:25:32;10.50;99.90
9668;DHT22;4872;48.316;10.650;2023-10-31T18:28:00;10.70;99.90
9668;DHT22;4872;48.316;10.650;2023-10-31T18:30:26;10.30;99.90
9668;DHT22;4872;48.316;10.650;2023-10-31T18:32:53;10.40;99.90
9668;DHT22;4872;48.316;10.650;2023-10-31T18:35:20;10.30;99.90
9668;DHT22;4872;48.316;10.650;2023-10-31T18:37:47;10.20;99.90
9668;DHT22;4872;48.316;10.650;2023-10-31T18:40:14;10.70;99.90
9668;DHT22;4872;48.316;10.650;2023-10-31T18:42:41;10.20;99.90
9668;DHT22;4872;48.316;10.650;2023-10-31T18:45:09;10.20;99.90
9668;DHT22;4872;48.316;10.650;2023-10-31T18:47:39;11.10;99.90
9668;DHT22;4872;48.316;10.650;2023-10-31T18:50:07;10.20;99.90
9668;DHT22;4872;48.316;10.650;2023-10-31T18:52:34;10.20;99.90
9668;DHT22;4872;48.316;10.650;2023-10-31T18:55:03;10.70;99.90
9668;DHT22;4872;48.316;10.650;2023-10-31T18:57:29;10.20;99.90
9668;DHT22;4872;48.316;10.650;2023-10-31T18:59:56;10.20;99.90
9668;DHT22;4872;48.316;10.650;2023-10-31T19:02:25;10.10;99.90
9668;DHT22;4872;48.316;10.650;2023-10-31T19:04:52;10.20;99.90
9668;DHT22;4872;48.316;10.650;2023-10-31T19:07:19;10.60;99.90
9668;DHT22;4872;48.316;10.650;2023-10-31T19:09:46;10.50;99.90
9668;DHT22;4872;48.316;10.650;2023-10-31T19:12:13;10.10;99.90
9668;DHT22;4872;48.316;10.650;2023-10-31T19:14:40;10.60;99.90
9668;DHT22;4872;48.316;10.650;2023-10-31T19:17:07;10.20;99.90
9668;DHT22;4872;48.316;10.650;2023-10-31T19:19:35;10.20;99.90
9668;DHT22;4872;48.316;10.650;2023-10-31T19:22:02;10.20;99.90
9668;DHT22;4872;48.316;10.650;2023-10-31T19:24:28;10.20;99.90
9668;DHT22;4872;48.316;10.650;2023-10-31T19:26:55;10.30;99.90
9668;DHT22;4872;48.316;10.650;2023-10-31T19:29:22;10.20;99.90
9668;DHT22;4872;48.316;10.650;2023-10-31T19:31:49;10.10;99.90
9668;DHT22;4872;48.316;10.650;2023-10-31T19:34:15;10.10;99.90
9668;DHT22;4872;48.316;10.650;2023-10-31T19:36:43;10.10;99.90
9668;DHT22;4872;48.316;10.650;2023-10-31T19:39:10;10.00;99.90
9668;DHT22;4872;48.316;10.650;2023-10-31T19:41:38;10.00;99.90
9668;DHT22;4872;48.316;10.650;2023-10-31T19:44:04;10.10;99.90
9668;DHT22;4872;48.316;10.650;2023-10-31T19:46:31;10.00;99.90
9668;DHT22;4872;48.316;10.650;2023-10-31T19:48:58;10.00;99.90
9668;DHT22;4872;48.316;10.650;2023-10-31T19:51:25;10.00;99.90
9668;DHT22;4872;48.316;10.650;2023-10-31T19:53:53;9.90;99.90
9668;DHT22;4872;48.316;10.650;2023-10-31T19:56:21;10.00;99.90
9668;DHT22;4872;48.316;10.650;2023-10-31T19:58:47;10.10;99.90
9668;DHT22;4872;48.316;10.650;2023-10-31T20:01:14;10.10;99.90
9668;DHT22;4872;48.316;10.650;2023-10-31T20:03:41;10.10;99.90
9668;DHT22;4872;48.316;10.650;2023-10-31T20:06:08;10.10;99.90
9668;DHT22;4872;48.316;10.650;2023-10-31T20:08:35;10.10;99.90
9668;DHT22;4872;48.316;10.650;2023-10-31T20:11:03;10.40;99.90
9668;DHT22;4872;48.316;10.650;2023-10-31T20:13:30;10.20;99.90
9668;DHT22;4872;48.316;10.650;2023-10-31T20:15:57;10.20;99.90
9668;DHT22;4872;48.316;10.650;2023-10-31T20:18:23;10.20;99.90
9668;DHT22;4872;48.316;10.650;2023-10-31T20:20:51;10.20;99.90
9668;DHT22;4872;48.316;10.650;2023-10-31T20:23:21;10.20;99.90
9668;DHT22;4872;48.316;10.650;2023-10-31T20:25:48;10.30;99.90
9668;DHT22;4872;48.316;10.650;2023-10-31T20:28:17;10.20;99.90
9668;DHT22;4872;48.316;10.650;2023-10-31T20:30:44;10.20;99.90
9668;DHT22;4872;48.316;10.650;2023-10-31T20:33:11;10.20;99.90
9668;DHT22;4872;48.316;10.650;2023-10-31T20:35:38;10.10;99.90
9668;DHT22;4872;48.316;10.650;2023-10-31T20:38:05;10.10;99.90
9668;DHT22;4872;48.316;10.650;2023-10-31T20:40:32;10.20;99.90
9668;DHT22;4872;48.316;10.650;2023-10-31T20:42:58;10.20;99.90